Terminal Aerodrome Forecast
Issued by NWS Sioux Falls, SD

Home | Current Version | Previous Version | Text Only | Print | Product List | Glossary Off
Versions: 1 2 3 4 5 6 7 8 9 10 11 12 13 14

000
FTUS43 KFSD 110520
TAFSUX
TAF
KSUX 110520Z 1106/1206 VRB05KT P6SM SCT120 BKN200
     FM111100 27010KT P6SM FEW200
     FM111300 29013G26KT P6SM FEW140
     FM111500 31022G35KT P6SM BKN060
     FM111700 32025G36KT P6SM OVC029
     FM112300 33018G28KT P6SM BKN035
     FM120200 33013G19KT P6SM FEW150=

USA.gov is the U.S. government's official web portal to all federal, state and local government web resources and services.